createdAt,value
2023-01-29T00:00:28.489Z,7.80
2023-01-29T00:02:58.495Z,8.70
2023-01-29T00:05:28.843Z,9.37
2023-01-29T00:07:59.541Z,8.73
2023-01-29T00:10:29.796Z,9.00
2023-01-29T00:12:59.788Z,8.67
2023-01-29T00:16:00.157Z,9.20
2023-01-29T00:18:31.379Z,8.70
2023-01-29T00:21:04.429Z,7.53
2023-01-29T00:23:34.488Z,9.10
2023-01-29T00:26:19.362Z,8.67
2023-01-29T00:28:51.595Z,8.83
2023-01-29T00:31:27.022Z,8.47
2023-01-29T00:33:57.357Z,8.47
2023-01-29T00:36:28.927Z,9.33
2023-01-29T00:39:03.576Z,9.27
2023-01-29T00:41:47.796Z,9.80
2023-01-29T00:44:31.334Z,9.40
2023-01-29T00:47:04.132Z,10.43
2023-01-29T00:49:34.253Z,8.90
2023-01-29T00:52:16.618Z,10.00
2023-01-29T00:54:46.629Z,9.13
2023-01-29T00:57:16.613Z,10.30
2023-01-29T00:59:46.630Z,10.80
2023-01-29T01:02:31.934Z,10.90
2023-01-29T01:05:02.473Z,10.90
2023-01-29T01:07:33.699Z,11.27
2023-01-29T01:10:16.266Z,11.30
2023-01-29T01:12:46.765Z,11.90
2023-01-29T01:15:16.933Z,11.83
2023-01-29T01:17:49.743Z,12.33
2023-01-29T01:20:20.134Z,12.87
2023-01-29T01:22:50.302Z,12.20
2023-01-29T01:25:20.444Z,12.07
2023-01-29T01:27:50.595Z,11.30
2023-01-29T01:30:20.819Z,13.20
2023-01-29T01:32:53.909Z,13.23
2023-01-29T01:35:24.041Z,12.30
2023-01-29T01:37:54.158Z,12.97
2023-01-29T01:40:25.625Z,12.83
2023-01-29T01:42:57.751Z,12.47
2023-01-29T01:45:30.492Z,13.33
2023-01-29T01:48:08.850Z,13.00
2023-01-29T01:50:42.921Z,13.37
2023-01-29T01:53:17.413Z,12.83
2023-01-29T01:55:53.479Z,13.63
2023-01-29T01:58:28.891Z,13.07
2023-01-29T02:00:59.626Z,13.10
2023-01-29T02:03:48.722Z,15.47
2023-01-29T02:06:31.151Z,14.00
2023-01-29T02:09:18.352Z,13.80
2023-01-29T02:11:48.472Z,13.97
2023-01-29T02:14:19.074Z,14.20
2023-01-29T02:16:49.244Z,15.07
2023-01-29T02:19:31.617Z,14.40
2023-01-29T02:22:28.323Z,14.47
2023-01-29T02:25:09.893Z,13.80
2023-01-29T02:28:15.746Z,14.47
2023-01-29T02:30:52.903Z,14.67
2023-01-29T02:33:32.483Z,12.43
2023-01-29T02:36:09.993Z,16.63
2023-01-29T02:38:48.322Z,14.63
2023-01-29T02:41:23.539Z,15.17
2023-01-29T02:44:01.888Z,13.90
2023-01-29T02:46:35.877Z,13.53
2023-01-29T02:49:16.046Z,14.60
2023-01-29T02:52:01.721Z,14.90
2023-01-29T02:54:37.731Z,16.40
2023-01-29T02:57:17.259Z,14.63
2023-01-29T02:59:57.016Z,14.70
2023-01-29T03:02:35.552Z,15.20
2023-01-29T03:05:12.838Z,15.17
2023-01-29T03:07:49.319Z,15.43
2023-01-29T03:10:34.339Z,13.90
2023-01-29T03:13:11.054Z,15.50
2023-01-29T03:15:51.274Z,15.83
2023-01-29T03:18:48.777Z,14.93
2023-01-29T03:21:36.181Z,15.63
2023-01-29T03:24:21.432Z,13.87
2023-01-29T03:27:03.990Z,15.77
2023-01-29T03:29:53.826Z,15.07
2023-01-29T03:32:33.083Z,14.80
2023-01-29T03:35:07.949Z,16.20
2023-01-29T03:37:44.512Z,15.00
2023-01-29T03:40:16.424Z,15.77
2023-01-29T03:43:02.857Z,13.40
2023-01-29T03:45:43.190Z,15.83
2023-01-29T03:48:25.440Z,15.63
2023-01-29T03:51:04.634Z,15.73
2023-01-29T03:53:44.374Z,14.63
2023-01-29T03:56:36.620Z,16.10
2023-01-29T03:59:18.052Z,16.70
2023-01-29T04:02:32.408Z,16.10
2023-01-29T04:05:16.833Z,15.83
2023-01-29T04:08:07.957Z,14.97
2023-01-29T04:10:42.221Z,15.77
2023-01-29T04:13:15.173Z,16.40
2023-01-29T04:15:52.156Z,17.07
2023-01-29T04:18:28.391Z,17.03
2023-01-29T04:21:13.409Z,15.80
2023-01-29T04:23:43.647Z,16.53
2023-01-29T04:26:51.912Z,17.17
2023-01-29T04:29:47.770Z,16.13
2023-01-29T04:32:24.049Z,16.03
2023-01-29T04:35:04.079Z,16.83
2023-01-29T04:37:48.508Z,15.70
2023-01-29T04:40:24.148Z,17.47
2023-01-29T04:43:05.367Z,16.10
2023-01-29T04:45:47.907Z,15.77
2023-01-29T04:48:25.797Z,17.77
2023-01-29T04:51:01.605Z,17.07
2023-01-29T04:53:46.048Z,16.33
2023-01-29T04:56:23.847Z,18.97
2023-01-29T04:58:58.547Z,17.27
2023-01-29T05:01:33.205Z,16.13
2023-01-29T05:04:07.507Z,18.50
2023-01-29T05:06:40.279Z,18.80
2023-01-29T05:09:15.422Z,18.00
2023-01-29T05:11:48.383Z,18.20
2023-01-29T05:14:22.334Z,19.27
2023-01-29T05:16:55.148Z,20.03
2023-01-29T05:19:25.246Z,19.13
2023-01-29T05:21:55.583Z,19.10
2023-01-29T05:24:29.908Z,20.43
2023-01-29T05:27:12.293Z,19.70
2023-01-29T05:29:44.500Z,22.00
2023-01-29T05:32:14.477Z,21.10
2023-01-29T05:34:44.541Z,20.83
2023-01-29T05:37:14.579Z,21.87
2023-01-29T05:39:47.079Z,20.73
2023-01-29T05:42:17.353Z,22.03
2023-01-29T05:44:47.313Z,20.63
2023-01-29T05:47:17.377Z,21.00
2023-01-29T05:49:47.391Z,22.27
2023-01-29T05:52:17.369Z,21.43
2023-01-29T05:54:49.951Z,21.20
2023-01-29T05:57:19.873Z,23.13
2023-01-29T05:59:49.811Z,21.93
2023-01-29T06:02:19.765Z,22.67
2023-01-29T06:04:49.761Z,22.30
2023-01-29T06:07:19.914Z,22.07
2023-01-29T06:09:52.432Z,24.17
2023-01-29T06:12:22.404Z,23.77
2023-01-29T06:14:52.321Z,21.73
2023-01-29T06:17:22.218Z,24.07
2023-01-29T06:19:52.142Z,24.17
2023-01-29T06:22:22.076Z,24.23
2023-01-29T06:24:54.650Z,22.80
2023-01-29T06:27:24.679Z,23.10
2023-01-29T06:29:54.662Z,23.10
2023-01-29T06:32:36.132Z,22.87
2023-01-29T06:35:06.713Z,23.47
2023-01-29T06:37:36.674Z,25.60
2023-01-29T06:40:11.713Z,21.07
2023-01-29T06:42:41.650Z,20.07
2023-01-29T06:45:14.775Z,21.93
2023-01-29T06:47:44.801Z,23.40
2023-01-29T06:50:15.779Z,22.47
2023-01-29T06:52:45.890Z,26.23
2023-01-29T06:55:18.577Z,23.50
2023-01-29T06:57:48.527Z,22.43
2023-01-29T07:00:19.397Z,25.13
2023-01-29T07:02:52.066Z,22.70
2023-01-29T07:05:42.761Z,24.27
2023-01-29T07:08:12.685Z,24.27
2023-01-29T07:11:11.715Z,24.67
2023-01-29T07:13:41.720Z,24.40
2023-01-29T07:16:14.408Z,25.40
2023-01-29T07:18:44.418Z,28.50
2023-01-29T07:21:14.432Z,25.13
2023-01-29T07:23:44.419Z,27.63
2023-01-29T07:26:17.038Z,28.90
2023-01-29T07:28:47.017Z,27.43
2023-01-29T07:31:17.972Z,28.77
2023-01-29T07:33:48.217Z,26.73
2023-01-29T07:36:18.420Z,27.40
2023-01-29T07:38:52.335Z,27.43
2023-01-29T07:41:25.154Z,27.33
2023-01-29T07:43:55.233Z,26.80
2023-01-29T07:46:25.216Z,27.33
2023-01-29T07:48:55.299Z,26.67
2023-01-29T07:51:25.259Z,28.40
2023-01-29T07:53:55.289Z,25.33
2023-01-29T07:56:28.108Z,26.70
2023-01-29T07:58:58.829Z,26.07
2023-01-29T08:01:28.884Z,28.30
2023-01-29T08:03:58.895Z,25.77
2023-01-29T08:06:28.807Z,26.67
2023-01-29T08:08:59.811Z,24.70
2023-01-29T08:11:39.058Z,27.17
2023-01-29T08:14:11.718Z,26.90
2023-01-29T08:16:41.722Z,24.80
2023-01-29T08:19:11.744Z,28.00
2023-01-29T08:21:41.791Z,27.57
2023-01-29T08:24:11.772Z,28.90
2023-01-29T08:27:04.584Z,25.10
2023-01-29T08:29:34.585Z,30.07
2023-01-29T08:32:04.764Z,31.60
2023-01-29T08:34:34.959Z,29.10
2023-01-29T08:37:05.076Z,23.53
2023-01-29T08:39:35.175Z,26.73
2023-01-29T08:42:07.825Z,26.27
2023-01-29T08:44:37.881Z,27.40
2023-01-29T08:47:07.994Z,24.43
2023-01-29T08:49:37.937Z,30.90
2023-01-29T08:52:08.232Z,27.97
2023-01-29T08:54:38.249Z,26.57
2023-01-29T08:57:10.923Z,29.87
2023-01-29T08:59:41.186Z,25.23
2023-01-29T09:02:13.866Z,29.23
2023-01-29T09:04:43.824Z,25.00
2023-01-29T09:07:13.808Z,25.73
2023-01-29T09:09:43.824Z,27.40
2023-01-29T09:12:16.473Z,26.53
2023-01-29T09:14:46.599Z,25.67
2023-01-29T09:17:16.664Z,26.47
2023-01-29T09:19:46.657Z,24.90
2023-01-29T09:22:16.640Z,27.03
2023-01-29T09:24:53.924Z,26.63
2023-01-29T09:27:26.700Z,24.87
2023-01-29T09:29:56.701Z,25.90
2023-01-29T09:32:50.079Z,24.83
2023-01-29T09:35:16.880Z,26.73
2023-01-29T09:37:50.465Z,27.40
2023-01-29T09:40:26.547Z,27.23
2023-01-29T09:43:04.705Z,25.70
2023-01-29T09:45:35.448Z,24.77
2023-01-29T09:48:06.776Z,25.17
2023-01-29T09:50:42.567Z,25.47
2023-01-29T09:53:20.782Z,27.73
2023-01-29T09:55:54.256Z,25.63
2023-01-29T09:58:31.883Z,28.00
2023-01-29T10:01:13.897Z,27.63
2023-01-29T10:04:15.332Z,27.67
2023-01-29T10:07:01.496Z,24.20
2023-01-29T10:10:00.091Z,26.80
2023-01-29T10:12:45.796Z,25.33
2023-01-29T10:15:38.152Z,26.87
2023-01-29T10:18:40.902Z,25.30
2023-01-29T10:21:26.815Z,24.60
2023-01-29T10:24:03.766Z,24.57
2023-01-29T10:26:48.791Z,22.07
2023-01-29T10:29:38.926Z,85.57
2023-01-29T10:32:19.496Z,27.70
2023-01-29T10:34:55.397Z,25.77
2023-01-29T10:37:29.430Z,22.90
2023-01-29T10:40:03.475Z,22.57
2023-01-29T10:42:49.833Z,22.77
2023-01-29T10:45:31.702Z,21.03
2023-01-29T10:48:36.438Z,21.00
2023-01-29T10:51:19.205Z,20.60
2023-01-29T10:54:00.580Z,20.87
2023-01-29T10:56:47.762Z,21.33
2023-01-29T10:59:39.612Z,22.37
2023-01-29T11:02:19.709Z,20.57
2023-01-29T11:04:53.634Z,18.33
2023-01-29T11:07:28.403Z,16.97
2023-01-29T11:10:05.473Z,18.70
2023-01-29T11:12:38.320Z,19.63
2023-01-29T11:15:17.462Z,18.80
2023-01-29T11:18:06.284Z,17.23
2023-01-29T11:20:39.158Z,16.63
2023-01-29T11:23:09.225Z,17.77
2023-01-29T11:25:56.018Z,16.57
2023-01-29T11:28:42.193Z,17.37
2023-01-29T11:31:26.142Z,16.83
2023-01-29T11:34:04.355Z,17.03
2023-01-29T11:36:39.746Z,15.83
2023-01-29T11:39:19.275Z,16.40
2023-01-29T11:41:56.429Z,16.73
2023-01-29T11:44:37.411Z,16.00
2023-01-29T11:47:15.538Z,16.10
2023-01-29T11:50:05.463Z,16.53
2023-01-29T11:52:42.216Z,15.73
2023-01-29T11:55:20.707Z,16.40
2023-01-29T11:57:54.371Z,16.43
2023-01-29T12:00:29.864Z,15.37
2023-01-29T12:03:04.850Z,20.43
2023-01-29T12:05:58.170Z,15.83
2023-01-29T12:08:38.135Z,15.30
2023-01-29T12:11:14.507Z,14.67
2023-01-29T12:14:03.137Z,16.90
2023-01-29T12:16:49.701Z,16.00
2023-01-29T12:19:28.374Z,14.57
2023-01-29T12:22:04.472Z,14.43
2023-01-29T12:24:43.764Z,14.80
2023-01-29T12:27:20.143Z,13.23
2023-01-29T12:29:55.383Z,14.90
2023-01-29T12:32:35.893Z,16.13
2023-01-29T12:35:13.377Z,14.40
2023-01-29T12:37:54.796Z,15.33
2023-01-29T12:40:32.532Z,14.90
2023-01-29T12:43:10.124Z,24.03
2023-01-29T12:45:41.869Z,13.20
2023-01-29T12:48:16.862Z,15.83
2023-01-29T12:50:47.827Z,14.33
2023-01-29T12:53:28.415Z,14.97
2023-01-29T12:56:05.373Z,14.40
2023-01-29T12:58:41.209Z,14.10
2023-01-29T13:01:19.164Z,13.67
2023-01-29T13:03:56.127Z,15.07
2023-01-29T13:06:31.596Z,14.83
2023-01-29T13:09:04.561Z,15.13
2023-01-29T13:11:43.937Z,17.73
2023-01-29T13:14:22.384Z,13.40
2023-01-29T13:16:57.380Z,17.63
2023-01-29T13:19:32.463Z,15.67
2023-01-29T13:22:05.608Z,14.83
2023-01-29T13:24:44.354Z,13.70
2023-01-29T13:27:26.670Z,13.00
2023-01-29T13:29:57.963Z,14.67
2023-01-29T13:32:30.966Z,16.37
2023-01-29T13:35:05.449Z,16.40
2023-01-29T13:37:39.194Z,16.27
2023-01-29T13:40:11.566Z,16.43
2023-01-29T13:42:48.578Z,15.73
2023-01-29T13:45:25.588Z,15.40
2023-01-29T13:48:26.959Z,15.90
2023-01-29T13:51:05.925Z,14.27
2023-01-29T13:53:41.339Z,15.07
2023-01-29T13:56:41.607Z,14.90
2023-01-29T13:59:25.779Z,13.70
2023-01-29T14:02:23.582Z,13.83
2023-01-29T14:04:53.788Z,13.10
2023-01-29T14:07:53.183Z,12.60
2023-01-29T14:10:34.089Z,12.40
2023-01-29T14:13:37.023Z,15.53
2023-01-29T14:16:40.340Z,15.13
2023-01-29T14:19:22.098Z,13.37
2023-01-29T14:21:53.418Z,15.43
2023-01-29T14:24:27.732Z,14.60
2023-01-29T14:26:58.872Z,15.47
2023-01-29T14:29:34.964Z,16.70
2023-01-29T14:32:19.994Z,16.33
2023-01-29T14:34:54.796Z,17.07
2023-01-29T14:37:31.816Z,15.20
2023-01-29T14:40:13.493Z,16.50
2023-01-29T14:42:55.579Z,16.97
2023-01-29T14:45:35.964Z,15.77
2023-01-29T14:48:39.255Z,18.13
2023-01-29T14:51:16.680Z,17.27
2023-01-29T14:54:05.571Z,17.90
2023-01-29T14:56:49.396Z,17.13
2023-01-29T14:59:46.207Z,16.83
2023-01-29T15:02:25.243Z,17.80
2023-01-29T15:05:02.793Z,23.17
2023-01-29T15:07:38.209Z,17.27
2023-01-29T15:10:24.618Z,19.83
2023-01-29T15:13:00.106Z,16.03
2023-01-29T15:15:39.206Z,19.70
2023-01-29T15:18:12.199Z,18.10
2023-01-29T15:20:46.535Z,20.27
2023-01-29T15:23:29.401Z,20.53
2023-01-29T15:26:02.103Z,19.90
2023-01-29T15:28:33.707Z,19.63
2023-01-29T15:31:08.026Z,19.57
2023-01-29T15:33:39.442Z,19.57
2023-01-29T15:36:22.596Z,19.93
2023-01-29T15:39:07.065Z,20.33
2023-01-29T15:41:37.058Z,21.20
2023-01-29T15:44:11.886Z,20.87
2023-01-29T15:46:45.139Z,21.27
2023-01-29T15:49:23.588Z,22.70
2023-01-29T15:51:59.795Z,21.20
2023-01-29T15:54:34.073Z,17.30
2023-01-29T15:57:05.442Z,22.60
2023-01-29T15:59:40.750Z,21.63
2023-01-29T16:02:36.063Z,18.27
2023-01-29T16:05:30.302Z,21.57
2023-01-29T16:08:03.838Z,21.53
2023-01-29T16:10:35.348Z,20.93
2023-01-29T16:13:31.674Z,19.43
2023-01-29T16:16:07.307Z,21.00
2023-01-29T16:18:57.839Z,20.43
2023-01-29T16:21:37.129Z,19.70
2023-01-29T16:24:15.986Z,21.23
2023-01-29T16:26:49.657Z,20.90
2023-01-29T16:29:26.267Z,22.30
2023-01-29T16:32:02.642Z,20.50
2023-01-29T16:34:35.559Z,20.27
2023-01-29T16:37:10.274Z,20.63
2023-01-29T16:39:50.597Z,22.60
2023-01-29T16:42:31.151Z,29.20
2023-01-29T16:45:04.156Z,23.10
2023-01-29T16:47:37.684Z,19.20
2023-01-29T16:50:40.682Z,20.83
2023-01-29T16:53:25.652Z,21.70
2023-01-29T16:56:06.278Z,21.80
2023-01-29T16:58:37.461Z,21.93
2023-01-29T17:01:12.948Z,20.80
2023-01-29T17:03:44.535Z,19.97
2023-01-29T17:06:33.193Z,21.27
2023-01-29T17:09:04.645Z,21.83
2023-01-29T17:11:44.298Z,22.77
2023-01-29T17:14:22.101Z,22.80
2023-01-29T17:16:54.291Z,17.60
2023-01-29T17:19:25.434Z,21.63
2023-01-29T17:21:57.172Z,18.37
2023-01-29T17:24:27.171Z,22.37
2023-01-29T17:26:59.887Z,20.20
2023-01-29T17:29:34.529Z,23.23
2023-01-29T17:32:04.633Z,22.63
2023-01-29T17:34:34.616Z,21.80
2023-01-29T17:37:04.551Z,21.33
2023-01-29T17:39:35.149Z,22.40
2023-01-29T17:42:08.256Z,24.17
2023-01-29T17:44:38.293Z,22.63
2023-01-29T17:47:11.890Z,21.77
2023-01-29T17:49:44.190Z,28.60
2023-01-29T17:52:14.253Z,21.73
2023-01-29T17:54:44.293Z,22.27
2023-01-29T17:57:18.220Z,19.60
2023-01-29T17:59:56.366Z,21.40
2023-01-29T18:02:28.747Z,21.43
2023-01-29T18:04:59.808Z,18.67
2023-01-29T18:07:29.980Z,23.90
2023-01-29T18:10:00.154Z,21.60
2023-01-29T18:12:32.988Z,18.37
2023-01-29T18:15:03.040Z,21.97
2023-01-29T18:17:36.227Z,19.07
2023-01-29T18:20:18.854Z,20.23
2023-01-29T18:22:49.484Z,21.07
2023-01-29T18:25:24.815Z,18.70
2023-01-29T18:28:00.698Z,18.97
2023-01-29T18:30:30.805Z,18.17
2023-01-29T18:33:02.002Z,14.97
2023-01-29T18:35:34.795Z,18.30
2023-01-29T18:38:04.916Z,17.97
2023-01-29T18:40:35.589Z,16.57
2023-01-29T18:43:08.338Z,19.43
2023-01-29T18:45:41.805Z,19.40
2023-01-29T18:48:11.941Z,18.27
2023-01-29T18:50:41.934Z,16.87
2023-01-29T18:53:23.320Z,18.10
2023-01-29T18:56:00.944Z,16.33
2023-01-29T18:58:36.758Z,18.57
2023-01-29T19:01:10.055Z,18.10
2023-01-29T19:03:40.582Z,29.80
2023-01-29T19:06:13.279Z,18.33
2023-01-29T19:08:44.110Z,18.03
2023-01-29T19:11:34.319Z,19.87
2023-01-29T19:14:06.920Z,18.27
2023-01-29T19:16:36.932Z,13.23
2023-01-29T19:19:07.123Z,16.13
2023-01-29T19:21:37.660Z,15.57
2023-01-29T19:24:10.138Z,16.23
2023-01-29T19:26:40.445Z,18.03
2023-01-29T19:29:13.348Z,16.57
2023-01-29T19:31:43.419Z,15.80
2023-01-29T19:34:13.698Z,18.20
2023-01-29T19:36:43.706Z,14.27
2023-01-29T19:39:14.863Z,17.47
2023-01-29T19:41:44.981Z,16.43
2023-01-29T19:44:17.850Z,17.57
2023-01-29T19:46:47.959Z,14.73
2023-01-29T19:49:18.406Z,15.97
2023-01-29T19:51:50.604Z,17.23
2023-01-29T19:54:22.077Z,15.20
2023-01-29T19:56:52.022Z,15.77
2023-01-29T19:59:24.990Z,17.07
2023-01-29T20:01:55.173Z,14.87
2023-01-29T20:04:26.798Z,14.43
2023-01-29T20:06:56.739Z,13.90
2023-01-29T20:09:29.422Z,15.70
2023-01-29T20:11:59.390Z,15.17
2023-01-29T20:14:32.020Z,11.60
2023-01-29T20:17:01.941Z,13.97
2023-01-29T20:19:31.885Z,13.70
2023-01-29T20:22:01.896Z,12.80
2023-01-29T20:24:55.177Z,12.50
2023-01-29T20:27:25.144Z,10.47
2023-01-29T20:29:57.667Z,10.70
2023-01-29T20:32:27.908Z,13.23
2023-01-29T20:34:57.858Z,12.80
2023-01-29T20:37:27.897Z,12.47
2023-01-29T20:39:57.868Z,12.43
2023-01-29T20:42:27.930Z,12.87
2023-01-29T20:45:00.806Z,13.07
2023-01-29T20:47:30.791Z,12.03
2023-01-29T20:50:04.522Z,12.23
2023-01-29T20:52:34.509Z,30.53
2023-01-29T20:55:04.720Z,11.90
2023-01-29T20:57:39.647Z,11.97
2023-01-29T21:00:15.168Z,11.77
2023-01-29T21:02:46.210Z,12.43
2023-01-29T21:05:16.686Z,12.10
2023-01-29T21:07:46.611Z,12.97
2023-01-29T21:10:17.139Z,12.33
2023-01-29T21:13:02.616Z,11.63
2023-01-29T21:15:35.267Z,11.00
2023-01-29T21:18:06.061Z,11.27
2023-01-29T21:20:36.070Z,10.67
2023-01-29T21:23:07.325Z,10.10
2023-01-29T21:25:38.647Z,11.87
2023-01-29T21:28:08.933Z,10.53
2023-01-29T21:30:41.707Z,13.00
2023-01-29T21:33:11.970Z,13.53
2023-01-29T21:35:42.051Z,14.50
2023-01-29T21:38:12.116Z,14.23
2023-01-29T21:40:42.183Z,12.43
2023-01-29T21:43:12.320Z,12.93
2023-01-29T21:45:45.538Z,13.00
2023-01-29T21:48:15.614Z,12.47
2023-01-29T21:50:45.676Z,12.50
2023-01-29T21:53:15.682Z,10.63
2023-01-29T21:55:45.790Z,11.60
2023-01-29T21:58:16.563Z,11.27
2023-01-29T22:00:49.801Z,13.40
2023-01-29T22:03:19.825Z,13.20
2023-01-29T22:05:54.866Z,11.40
2023-01-29T22:08:24.920Z,13.27
2023-01-29T22:10:55.048Z,12.17
2023-01-29T22:13:25.303Z,15.20
2023-01-29T22:16:00.371Z,11.77
2023-01-29T22:18:30.751Z,13.97
2023-01-29T22:21:02.748Z,13.17
2023-01-29T22:23:33.473Z,13.77
2023-01-29T22:26:21.426Z,13.80
2023-01-29T22:28:55.022Z,13.20
2023-01-29T22:31:27.887Z,11.40
2023-01-29T22:33:59.651Z,14.50
2023-01-29T22:36:32.692Z,10.93
2023-01-29T22:39:05.549Z,11.93
2023-01-29T22:41:38.018Z,13.67
2023-01-29T22:44:08.248Z,13.70
2023-01-29T22:46:41.348Z,13.17
2023-01-29T22:49:11.676Z,10.93
2023-01-29T22:51:42.180Z,11.90
2023-01-29T22:54:15.588Z,13.63
2023-01-29T22:56:45.621Z,11.57
2023-01-29T22:59:15.868Z,11.23
2023-01-29T23:01:48.669Z,12.63
2023-01-29T23:04:18.725Z,11.07
2023-01-29T23:06:48.912Z,10.70
2023-01-29T23:09:22.102Z,12.13
2023-01-29T23:11:52.160Z,11.80
2023-01-29T23:14:22.481Z,9.07
2023-01-29T23:16:55.045Z,13.13
2023-01-29T23:19:27.118Z,10.67
2023-01-29T23:21:57.057Z,11.87
2023-01-29T23:24:27.047Z,11.10
2023-01-29T23:27:09.424Z,10.20
2023-01-29T23:29:39.811Z,10.03
2023-01-29T23:32:13.555Z,12.77
2023-01-29T23:34:43.543Z,11.90
2023-01-29T23:37:13.781Z,11.30
2023-01-29T23:39:43.942Z,12.00
2023-01-29T23:42:13.912Z,14.30
2023-01-29T23:44:44.240Z,12.77
2023-01-29T23:47:16.752Z,13.17
2023-01-29T23:49:46.944Z,13.50
2023-01-29T23:52:17.037Z,11.77
2023-01-29T23:54:47.121Z,12.20
2023-01-29T23:57:17.190Z,11.37
2023-01-29T23:59:47.240Z,13.07
